sensor_id;sensor_type;location;lat;lon;timestamp;temperature;humidity
71098;SHT35;58754;47.622;-2.986;2023-06-26T00:02:21;26.76;53.71
71098;SHT35;58754;47.622;-2.986;2023-06-26T00:04:47;26.72;53.74
71098;SHT35;58754;47.622;-2.986;2023-06-26T00:07:12;26.73;53.71
71098;SHT35;58754;47.622;-2.986;2023-06-26T00:09:38;26.74;53.67
71098;SHT35;58754;47.622;-2.986;2023-06-26T00:12:04;26.73;53.64
71098;SHT35;58754;47.622;-2.986;2023-06-26T00:14:30;26.70;53.68
71098;SHT35;58754;47.622;-2.986;2023-06-26T00:16:56;26.73;53.63
71098;SHT35;58754;47.622;-2.986;2023-06-26T00:19:21;26.73;53.68
71098;SHT35;58754;47.622;-2.986;2023-06-26T00:21:47;26.70;53.67
71098;SHT35;58754;47.622;-2.986;2023-06-26T00:24:16;26.72;53.63
71098;SHT35;58754;47.622;-2.986;2023-06-26T00:26:42;26.70;53.61
71098;SHT35;58754;47.622;-2.986;2023-06-26T00:29:08;26.70;53.62
71098;SHT35;58754;47.622;-2.986;2023-06-26T00:31:34;26.69;53.62
71098;SHT35;58754;47.622;-2.986;2023-06-26T00:34:03;26.69;53.57
71098;SHT35;58754;47.622;-2.986;2023-06-26T00:36:29;26.69;53.55
71098;SHT35;58754;47.622;-2.986;2023-06-26T00:38:54;26.69;53.53
71098;SHT35;58754;47.622;-2.986;2023-06-26T00:41:20;26.67;53.59
71098;SHT35;58754;47.622;-2.986;2023-06-26T00:43:46;26.69;53.56
71098;SHT35;58754;47.622;-2.986;2023-06-26T00:46:15;26.66;53.55
71098;SHT35;58754;47.622;-2.986;2023-06-26T00:48:46;26.67;53.54
71098;SHT35;58754;47.622;-2.986;2023-06-26T00:51:12;26.67;53.52
71098;SHT35;58754;47.622;-2.986;2023-06-26T00:53:39;26.66;53.55
71098;SHT35;58754;47.622;-2.986;2023-06-26T00:56:05;26.66;53.51
71098;SHT35;58754;47.622;-2.986;2023-06-26T00:58:32;26.66;53.46
71098;SHT35;58754;47.622;-2.986;2023-06-26T01:00:58;26.66;53.44
71098;SHT35;58754;47.622;-2.986;2023-06-26T01:03:25;26.63;53.51
71098;SHT35;58754;47.622;-2.986;2023-06-26T01:05:56;26.63;53.50
71098;SHT35;58754;47.622;-2.986;2023-06-26T01:08:23;26.63;53.44
71098;SHT35;58754;47.622;-2.986;2023-06-26T01:10:49;26.64;53.49
71098;SHT35;58754;47.622;-2.986;2023-06-26T01:13:16;26.61;53.44
71098;SHT35;58754;47.622;-2.986;2023-06-26T01:15:42;26.64;53.45
71098;SHT35;58754;47.622;-2.986;2023-06-26T01:18:08;26.61;53.47
71098;SHT35;58754;47.622;-2.986;2023-06-26T01:20:36;26.61;53.45
71098;SHT35;58754;47.622;-2.986;2023-06-26T01:23:22;26.61;53.46
71098;SHT35;58754;47.622;-2.986;2023-06-26T01:28:23;26.61;53.44
71098;SHT35;58754;47.622;-2.986;2023-06-26T01:30:50;26.57;53.52
71098;SHT35;58754;47.622;-2.986;2023-06-26T01:33:16;26.60;53.42
71098;SHT35;58754;47.622;-2.986;2023-06-26T01:35:43;26.59;53.49
71098;SHT35;58754;47.622;-2.986;2023-06-26T01:38:17;26.60;53.46
71098;SHT35;58754;47.622;-2.986;2023-06-26T01:40:43;26.61;53.44
71098;SHT35;58754;47.622;-2.986;2023-06-26T01:43:29;26.57;53.51
71098;SHT35;58754;47.622;-2.986;2023-06-26T01:46:04;26.59;53.44
71098;SHT35;58754;47.622;-2.986;2023-06-26T01:48:38;26.56;53.45
71098;SHT35;58754;47.622;-2.986;2023-06-26T01:51:06;26.55;53.46
71098;SHT35;58754;47.622;-2.986;2023-06-26T01:53:38;26.57;53.47
71098;SHT35;58754;47.622;-2.986;2023-06-26T01:56:11;26.56;53.48
71098;SHT35;58754;47.622;-2.986;2023-06-26T01:58:41;26.56;53.45
71098;SHT35;58754;47.622;-2.986;2023-06-26T02:01:09;26.55;53.39
71098;SHT35;58754;47.622;-2.986;2023-06-26T02:03:34;26.55;53.45
71098;SHT35;58754;47.622;-2.986;2023-06-26T02:06:00;26.53;53.41
71098;SHT35;58754;47.622;-2.986;2023-06-26T02:08:26;26.53;53.40
71098;SHT35;58754;47.622;-2.986;2023-06-26T02:10:51;26.53;53.39
71098;SHT35;58754;47.622;-2.986;2023-06-26T02:13:17;26.52;53.41
71098;SHT35;58754;47.622;-2.986;2023-06-26T02:15:43;26.52;53.42
71098;SHT35;58754;47.622;-2.986;2023-06-26T02:18:08;26.52;53.39
71098;SHT35;58754;47.622;-2.986;2023-06-26T02:20:35;26.52;53.41
71098;SHT35;58754;47.622;-2.986;2023-06-26T02:23:01;26.50;53.36
71098;SHT35;58754;47.622;-2.986;2023-06-26T02:25:27;26.49;53.35
71098;SHT35;58754;47.622;-2.986;2023-06-26T02:27:53;26.49;53.36
71098;SHT35;58754;47.622;-2.986;2023-06-26T02:30:19;26.49;53.35
71098;SHT35;58754;47.622;-2.986;2023-06-26T02:32:44;26.50;53.33
71098;SHT35;58754;47.622;-2.986;2023-06-26T02:35:10;26.48;53.34
71098;SHT35;58754;47.622;-2.986;2023-06-26T02:37:36;26.48;53.34
71098;SHT35;58754;47.622;-2.986;2023-06-26T02:40:02;26.48;53.31
71098;SHT35;58754;47.622;-2.986;2023-06-26T02:42:31;26.43;53.27
71098;SHT35;58754;47.622;-2.986;2023-06-26T02:44:57;26.46;53.28
71098;SHT35;58754;47.622;-2.986;2023-06-26T02:47:22;26.45;53.22
71098;SHT35;58754;47.622;-2.986;2023-06-26T02:49:48;26.43;53.24
71098;SHT35;58754;47.622;-2.986;2023-06-26T02:52:14;26.46;53.29
71098;SHT35;58754;47.622;-2.986;2023-06-26T02:54:39;26.45;53.22
71098;SHT35;58754;47.622;-2.986;2023-06-26T02:57:05;26.42;53.17
71098;SHT35;58754;47.622;-2.986;2023-06-26T02:59:31;26.43;53.13
71098;SHT35;58754;47.622;-2.986;2023-06-26T03:01:57;26.43;53.13
71098;SHT35;58754;47.622;-2.986;2023-06-26T03:04:23;26.41;53.14
71098;SHT35;58754;47.622;-2.986;2023-06-26T03:06:49;26.42;53.19
71098;SHT35;58754;47.622;-2.986;2023-06-26T03:09:14;26.42;53.08
71098;SHT35;58754;47.622;-2.986;2023-06-26T03:11:41;26.42;53.09
71098;SHT35;58754;47.622;-2.986;2023-06-26T03:14:07;26.41;53.11
71098;SHT35;58754;47.622;-2.986;2023-06-26T03:16:33;26.39;53.08
71098;SHT35;58754;47.622;-2.986;2023-06-26T03:18:58;26.38;53.07
71098;SHT35;58754;47.622;-2.986;2023-06-26T03:21:24;26.38;53.07
71098;SHT35;58754;47.622;-2.986;2023-06-26T03:23:50;26.39;53.00
71098;SHT35;58754;47.622;-2.986;2023-06-26T03:26:16;26.36;52.97
71098;SHT35;58754;47.622;-2.986;2023-06-26T03:28:41;26.41;52.99
71098;SHT35;58754;47.622;-2.986;2023-06-26T03:31:10;26.38;52.98
71098;SHT35;58754;47.622;-2.986;2023-06-26T03:33:36;26.39;52.93
71098;SHT35;58754;47.622;-2.986;2023-06-26T03:36:02;26.38;52.91
71098;SHT35;58754;47.622;-2.986;2023-06-26T03:38:28;26.35;52.92
71098;SHT35;58754;47.622;-2.986;2023-06-26T03:40:54;26.35;52.86
71098;SHT35;58754;47.622;-2.986;2023-06-26T03:43:19;26.36;52.87
71098;SHT35;58754;47.622;-2.986;2023-06-26T03:45:45;26.35;52.84
71098;SHT35;58754;47.622;-2.986;2023-06-26T03:48:11;26.35;52.80
71098;SHT35;58754;47.622;-2.986;2023-06-26T03:50:37;26.35;52.85
71098;SHT35;58754;47.622;-2.986;2023-06-26T03:53:03;26.31;52.80
71098;SHT35;58754;47.622;-2.986;2023-06-26T03:55:28;26.33;52.77
71098;SHT35;58754;47.622;-2.986;2023-06-26T03:57:54;26.32;52.75
71098;SHT35;58754;47.622;-2.986;2023-06-26T04:00:20;26.29;52.72
71098;SHT35;58754;47.622;-2.986;2023-06-26T04:02:46;26.31;52.71
71098;SHT35;58754;47.622;-2.986;2023-06-26T04:05:11;26.31;52.72
71098;SHT35;58754;47.622;-2.986;2023-06-26T04:07:38;26.31;52.67
71098;SHT35;58754;47.622;-2.986;2023-06-26T04:10:04;26.31;52.67
71098;SHT35;58754;47.622;-2.986;2023-06-26T04:12:30;26.28;52.65
71098;SHT35;58754;47.622;-2.986;2023-06-26T04:14:55;26.29;52.60
71098;SHT35;58754;47.622;-2.986;2023-06-26T04:17:21;26.28;52.63
71098;SHT35;58754;47.622;-2.986;2023-06-26T04:19:47;26.28;52.60
71098;SHT35;58754;47.622;-2.986;2023-06-26T04:22:13;26.28;52.53
71098;SHT35;58754;47.622;-2.986;2023-06-26T04:24:38;26.26;52.52
71098;SHT35;58754;47.622;-2.986;2023-06-26T04:27:04;26.28;52.52
71098;SHT35;58754;47.622;-2.986;2023-06-26T04:29:31;26.26;52.45
71098;SHT35;58754;47.622;-2.986;2023-06-26T04:31:56;26.25;52.41
71098;SHT35;58754;47.622;-2.986;2023-06-26T04:34:27;26.24;52.46
71098;SHT35;58754;47.622;-2.986;2023-06-26T04:36:54;26.26;52.47
71098;SHT35;58754;47.622;-2.986;2023-06-26T04:39:20;26.24;52.43
71098;SHT35;58754;47.622;-2.986;2023-06-26T04:41:45;26.24;52.36
71098;SHT35;58754;47.622;-2.986;2023-06-26T04:44:11;26.21;52.38
71098;SHT35;58754;47.622;-2.986;2023-06-26T04:46:38;26.20;52.33
71098;SHT35;58754;47.622;-2.986;2023-06-26T04:49:09;26.22;52.38
71098;SHT35;58754;47.622;-2.986;2023-06-26T04:51:36;26.22;52.37
71098;SHT35;58754;47.622;-2.986;2023-06-26T04:54:07;26.20;52.28
71098;SHT35;58754;47.622;-2.986;2023-06-26T04:56:34;26.20;52.32
71098;SHT35;58754;47.622;-2.986;2023-06-26T04:59:00;26.21;52.30
71098;SHT35;58754;47.622;-2.986;2023-06-26T05:01:25;26.18;52.24
71098;SHT35;58754;47.622;-2.986;2023-06-26T05:03:53;26.18;52.25
71098;SHT35;58754;47.622;-2.986;2023-06-26T05:06:19;26.18;52.19
71098;SHT35;58754;47.622;-2.986;2023-06-26T05:08:45;26.18;52.22
71098;SHT35;58754;47.622;-2.986;2023-06-26T05:11:10;26.18;52.12
71098;SHT35;58754;47.622;-2.986;2023-06-26T05:13:36;26.18;52.09
71098;SHT35;58754;47.622;-2.986;2023-06-26T05:16:02;26.17;52.15
71098;SHT35;58754;47.622;-2.986;2023-06-26T05:18:27;26.18;52.12
71098;SHT35;58754;47.622;-2.986;2023-06-26T05:20:53;26.14;52.11
71098;SHT35;58754;47.622;-2.986;2023-06-26T05:23:19;26.15;52.07
71098;SHT35;58754;47.622;-2.986;2023-06-26T05:25:47;26.15;52.11
71098;SHT35;58754;47.622;-2.986;2023-06-26T05:28:13;26.15;52.07
71098;SHT35;58754;47.622;-2.986;2023-06-26T05:30:40;26.14;52.04
71098;SHT35;58754;47.622;-2.986;2023-06-26T05:33:09;26.13;52.16
71098;SHT35;58754;47.622;-2.986;2023-06-26T05:35:36;26.15;52.00
71098;SHT35;58754;47.622;-2.986;2023-06-26T05:38:02;26.13;51.99
71098;SHT35;58754;47.622;-2.986;2023-06-26T05:40:28;26.13;52.05
71098;SHT35;58754;47.622;-2.986;2023-06-26T05:42:54;26.09;52.00
71098;SHT35;58754;47.622;-2.986;2023-06-26T05:45:20;26.13;51.97
71098;SHT35;58754;47.622;-2.986;2023-06-26T05:47:46;26.11;51.93
71098;SHT35;58754;47.622;-2.986;2023-06-26T05:50:12;26.11;52.00
71098;SHT35;58754;47.622;-2.986;2023-06-26T05:52:38;26.11;51.96
71098;SHT35;58754;47.622;-2.986;2023-06-26T05:55:05;26.11;51.94
71098;SHT35;58754;47.622;-2.986;2023-06-26T05:57:31;26.09;51.96
71098;SHT35;58754;47.622;-2.986;2023-06-26T05:59:57;26.09;51.96
71098;SHT35;58754;47.622;-2.986;2023-06-26T06:02:23;26.09;51.94
71098;SHT35;58754;47.622;-2.986;2023-06-26T06:04:48;26.09;51.95
71098;SHT35;58754;47.622;-2.986;2023-06-26T06:07:14;26.07;51.94
71098;SHT35;58754;47.622;-2.986;2023-06-26T06:09:40;26.09;52.00
71098;SHT35;58754;47.622;-2.986;2023-06-26T06:12:06;26.08;51.95
71098;SHT35;58754;47.622;-2.986;2023-06-26T06:14:33;26.08;51.97
71098;SHT35;58754;47.622;-2.986;2023-06-26T06:16:59;26.07;52.05
71098;SHT35;58754;47.622;-2.986;2023-06-26T06:19:25;26.05;51.98
71098;SHT35;58754;47.622;-2.986;2023-06-26T06:21:51;26.08;52.00
71098;SHT35;58754;47.622;-2.986;2023-06-26T06:24:17;26.07;51.95
71098;SHT35;58754;47.622;-2.986;2023-06-26T06:26:42;26.02;51.98
71098;SHT35;58754;47.622;-2.986;2023-06-26T06:29:08;26.07;52.01
71098;SHT35;58754;47.622;-2.986;2023-06-26T06:31:34;26.04;52.03
71098;SHT35;58754;47.622;-2.986;2023-06-26T06:33:59;26.08;52.01
71098;SHT35;58754;47.622;-2.986;2023-06-26T06:36:25;26.05;52.04
71098;SHT35;58754;47.622;-2.986;2023-06-26T06:38:51;26.05;52.06
71098;SHT35;58754;47.622;-2.986;2023-06-26T06:41:17;26.04;52.06
71098;SHT35;58754;47.622;-2.986;2023-06-26T06:43:43;26.04;52.02
71098;SHT35;58754;47.622;-2.986;2023-06-26T06:46:08;26.07;52.08
71098;SHT35;58754;47.622;-2.986;2023-06-26T06:48:34;26.04;52.12
71098;SHT35;58754;47.622;-2.986;2023-06-26T06:51:00;26.01;52.10
71098;SHT35;58754;47.622;-2.986;2023-06-26T06:53:26;26.05;52.09
71098;SHT35;58754;47.622;-2.986;2023-06-26T06:55:52;26.04;52.13
71098;SHT35;58754;47.622;-2.986;2023-06-26T06:58:17;26.02;52.10
71098;SHT35;58754;47.622;-2.986;2023-06-26T07:00:46;26.02;52.13
71098;SHT35;58754;47.622;-2.986;2023-06-26T07:03:12;26.02;52.13
71098;SHT35;58754;47.622;-2.986;2023-06-26T07:05:37;26.07;52.16
71098;SHT35;58754;47.622;-2.986;2023-06-26T07:08:03;26.04;52.18
71098;SHT35;58754;47.622;-2.986;2023-06-26T07:10:30;26.02;52.20
71098;SHT35;58754;47.622;-2.986;2023-06-26T07:12:56;26.04;52.16
71098;SHT35;58754;47.622;-2.986;2023-06-26T07:15:22;26.02;52.18
71098;SHT35;58754;47.622;-2.986;2023-06-26T07:17:47;26.01;52.22
71098;SHT35;58754;47.622;-2.986;2023-06-26T07:20:13;26.02;52.22
71098;SHT35;58754;47.622;-2.986;2023-06-26T07:22:41;26.02;52.22
71098;SHT35;58754;47.622;-2.986;2023-06-26T07:25:08;26.00;52.19
71098;SHT35;58754;47.622;-2.986;2023-06-26T07:27:37;26.02;52.24
71098;SHT35;58754;47.622;-2.986;2023-06-26T07:30:03;26.01;52.21
71098;SHT35;58754;47.622;-2.986;2023-06-26T07:32:29;26.02;52.24
71098;SHT35;58754;47.622;-2.986;2023-06-26T07:34:55;26.01;52.25
71098;SHT35;58754;47.622;-2.986;2023-06-26T07:37:21;26.01;52.22
71098;SHT35;58754;47.622;-2.986;2023-06-26T07:39:48;26.02;52.23
71098;SHT35;58754;47.622;-2.986;2023-06-26T07:42:14;26.02;52.32
71098;SHT35;58754;47.622;-2.986;2023-06-26T07:44:41;26.01;52.29
71098;SHT35;58754;47.622;-2.986;2023-06-26T07:47:06;26.00;52.34
71098;SHT35;58754;47.622;-2.986;2023-06-26T07:49:32;26.04;52.29
71098;SHT35;58754;47.622;-2.986;2023-06-26T07:51:58;26.01;52.29
71098;SHT35;58754;47.622;-2.986;2023-06-26T07:54:24;26.01;52.30
71098;SHT35;58754;47.622;-2.986;2023-06-26T07:59:24;26.02;52.34
71098;SHT35;58754;47.622;-2.986;2023-06-26T08:01:53;26.01;52.30
71098;SHT35;58754;47.622;-2.986;2023-06-26T08:04:21;26.01;52.34
71098;SHT35;58754;47.622;-2.986;2023-06-26T08:06:53;26.00;52.35
71098;SHT35;58754;47.622;-2.986;2023-06-26T08:09:21;26.01;52.32
71098;SHT35;58754;47.622;-2.986;2023-06-26T08:11:47;26.02;52.31
71098;SHT35;58754;47.622;-2.986;2023-06-26T08:14:13;26.02;52.30
71098;SHT35;58754;47.622;-2.986;2023-06-26T08:16:39;26.04;52.34
71098;SHT35;58754;47.622;-2.986;2023-06-26T08:19:05;26.00;52.32
71098;SHT35;58754;47.622;-2.986;2023-06-26T08:21:31;26.02;52.37
71098;SHT35;58754;47.622;-2.986;2023-06-26T08:23:57;26.02;52.38
71098;SHT35;58754;47.622;-2.986;2023-06-26T08:26:23;26.01;52.31
71098;SHT35;58754;47.622;-2.986;2023-06-26T08:28:48;26.01;52.31
71098;SHT35;58754;47.622;-2.986;2023-06-26T08:31:14;26.01;52.34
71098;SHT35;58754;47.622;-2.986;2023-06-26T08:33:40;26.02;52.34
71098;SHT35;58754;47.622;-2.986;2023-06-26T08:36:06;26.02;52.34
71098;SHT35;58754;47.622;-2.986;2023-06-26T08:38:31;26.02;52.36
71098;SHT35;58754;47.622;-2.986;2023-06-26T08:40:58;26.02;52.32
71098;SHT35;58754;47.622;-2.986;2023-06-26T08:43:25;26.02;52.35
71098;SHT35;58754;47.622;-2.986;2023-06-26T08:45:52;26.00;52.32
71098;SHT35;58754;47.622;-2.986;2023-06-26T08:48:20;26.00;52.35
71098;SHT35;58754;47.622;-2.986;2023-06-26T08:50:49;26.01;52.33
71098;SHT35;58754;47.622;-2.986;2023-06-26T08:53:20;26.00;52.32
71098;SHT35;58754;47.622;-2.986;2023-06-26T08:55:52;26.01;52.36
71098;SHT35;58754;47.622;-2.986;2023-06-26T08:58:18;26.01;52.34
71098;SHT35;58754;47.622;-2.986;2023-06-26T09:00:45;26.02;52.33
71098;SHT35;58754;47.622;-2.986;2023-06-26T09:03:12;26.02;52.30
71098;SHT35;58754;47.622;-2.986;2023-06-26T09:05:38;26.02;52.34
71098;SHT35;58754;47.622;-2.986;2023-06-26T09:08:11;26.01;52.29
71098;SHT35;58754;47.622;-2.986;2023-06-26T09:10:39;26.05;52.29
71098;SHT35;58754;47.622;-2.986;2023-06-26T09:13:06;26.04;52.25
71098;SHT35;58754;47.622;-2.986;2023-06-26T09:15:39;26.04;52.27
71098;SHT35;58754;47.622;-2.986;2023-06-26T09:18:07;26.08;52.28
71098;SHT35;58754;47.622;-2.986;2023-06-26T09:20:33;26.04;52.27
71098;SHT35;58754;47.622;-2.986;2023-06-26T09:23:00;26.05;52.26
71098;SHT35;58754;47.622;-2.986;2023-06-26T09:25:26;26.01;52.25
71098;SHT35;58754;47.622;-2.986;2023-06-26T09:27:52;26.04;52.28
71098;SHT35;58754;47.622;-2.986;2023-06-26T09:30:18;26.04;52.24
71098;SHT35;58754;47.622;-2.986;2023-06-26T09:32:44;26.05;52.24
71098;SHT35;58754;47.622;-2.986;2023-06-26T09:35:10;26.04;52.25
71098;SHT35;58754;47.622;-2.986;2023-06-26T09:37:37;26.04;52.23
71098;SHT35;58754;47.622;-2.986;2023-06-26T09:40:03;26.01;52.24
71098;SHT35;58754;47.622;-2.986;2023-06-26T09:42:33;26.01;52.21
71098;SHT35;58754;47.622;-2.986;2023-06-26T09:44:59;26.04;52.24
71098;SHT35;58754;47.622;-2.986;2023-06-26T09:47:25;26.02;52.22
71098;SHT35;58754;47.622;-2.986;2023-06-26T09:49:51;26.02;52.19
71098;SHT35;58754;47.622;-2.986;2023-06-26T09:52:18;26.02;52.22
71098;SHT35;58754;47.622;-2.986;2023-06-26T09:54:47;26.00;52.17
71098;SHT35;58754;47.622;-2.986;2023-06-26T09:57:16;26.04;52.14
71098;SHT35;58754;47.622;-2.986;2023-06-26T09:59:43;26.01;52.15
71098;SHT35;58754;47.622;-2.986;2023-06-26T10:02:10;26.04;52.11
71098;SHT35;58754;47.622;-2.986;2023-06-26T10:04:37;26.02;52.13
71098;SHT35;58754;47.622;-2.986;2023-06-26T10:07:09;26.00;52.09
71098;SHT35;58754;47.622;-2.986;2023-06-26T10:09:40;26.01;52.02
71098;SHT35;58754;47.622;-2.986;2023-06-26T10:12:11;26.04;52.05
71098;SHT35;58754;47.622;-2.986;2023-06-26T10:14:41;26.04;52.06
71098;SHT35;58754;47.622;-2.986;2023-06-26T10:17:10;26.04;52.00
71098;SHT35;58754;47.622;-2.986;2023-06-26T10:19:38;26.02;52.00
71098;SHT35;58754;47.622;-2.986;2023-06-26T10:22:05;26.01;51.94
71098;SHT35;58754;47.622;-2.986;2023-06-26T10:24:34;26.01;52.02
71098;SHT35;58754;47.622;-2.986;2023-06-26T10:27:10;26.02;51.98
71098;SHT35;58754;47.622;-2.986;2023-06-26T10:29:40;26.04;51.93
71098;SHT35;58754;47.622;-2.986;2023-06-26T10:32:10;26.01;51.97
71098;SHT35;58754;47.622;-2.986;2023-06-26T10:34:38;26.01;51.89
71098;SHT35;58754;47.622;-2.986;2023-06-26T10:37:04;26.02;51.94
71098;SHT35;58754;47.622;-2.986;2023-06-26T10:39:53;26.02;51.98
71098;SHT35;58754;47.622;-2.986;2023-06-26T10:42:35;26.01;51.92
71098;SHT35;58754;47.622;-2.986;2023-06-26T10:45:17;26.00;51.86
71098;SHT35;58754;47.622;-2.986;2023-06-26T10:47:47;26.00;51.87
71098;SHT35;58754;47.622;-2.986;2023-06-26T10:52:41;26.00;51.85
71098;SHT35;58754;47.622;-2.986;2023-06-26T10:55:10;26.00;51.80
71098;SHT35;58754;47.622;-2.986;2023-06-26T10:57:37;26.01;51.76
71098;SHT35;58754;47.622;-2.986;2023-06-26T11:00:11;26.01;51.80
71098;SHT35;58754;47.622;-2.986;2023-06-26T11:02:50;26.02;51.83
71098;SHT35;58754;47.622;-2.986;2023-06-26T11:05:32;26.04;51.87
71098;SHT35;58754;47.622;-2.986;2023-06-26T11:08:05;26.02;51.79
71098;SHT35;58754;47.622;-2.986;2023-06-26T11:13:17;26.02;51.76
71098;SHT35;58754;47.622;-2.986;2023-06-26T11:15:44;26.02;51.78
71098;SHT35;58754;47.622;-2.986;2023-06-26T11:18:10;26.02;51.78
71098;SHT35;58754;47.622;-2.986;2023-06-26T11:20:36;26.01;51.78
71098;SHT35;58754;47.622;-2.986;2023-06-26T11:23:04;26.02;51.75
71098;SHT35;58754;47.622;-2.986;2023-06-26T11:25:35;26.05;51.75
71098;SHT35;58754;47.622;-2.986;2023-06-26T11:28:03;26.05;51.70
71098;SHT35;58754;47.622;-2.986;2023-06-26T11:30:29;26.04;51.70
71098;SHT35;58754;47.622;-2.986;2023-06-26T11:33:10;26.05;51.68
71098;SHT35;58754;47.622;-2.986;2023-06-26T11:35:35;26.04;51.62
71098;SHT35;58754;47.622;-2.986;2023-06-26T11:38:03;26.04;51.61
71098;SHT35;58754;47.622;-2.986;2023-06-26T11:40:36;26.05;51.59
71098;SHT35;58754;47.622;-2.986;2023-06-26T11:43:02;26.07;51.57
71098;SHT35;58754;47.622;-2.986;2023-06-26T11:45:30;26.05;51.57
71098;SHT35;58754;47.622;-2.986;2023-06-26T11:47:57;26.05;51.55
71098;SHT35;58754;47.622;-2.986;2023-06-26T11:50:23;26.07;51.49
71098;SHT35;58754;47.622;-2.986;2023-06-26T11:52:57;26.07;51.48
71098;SHT35;58754;47.622;-2.986;2023-06-26T11:55:23;26.07;51.44
71098;SHT35;58754;47.622;-2.986;2023-06-26T11:57:50;26.07;51.39
71098;SHT35;58754;47.622;-2.986;2023-06-26T12:00:18;26.09;51.36
71098;SHT35;58754;47.622;-2.986;2023-06-26T12:02:45;26.08;51.32
71098;SHT35;58754;47.622;-2.986;2023-06-26T12:05:18;26.08;51.30
71098;SHT35;58754;47.622;-2.986;2023-06-26T12:07:46;26.09;51.26
71098;SHT35;58754;47.622;-2.986;2023-06-26T12:10:14;26.07;51.18
71098;SHT35;58754;47.622;-2.986;2023-06-26T12:12:40;26.08;51.22
71098;SHT35;58754;47.622;-2.986;2023-06-26T12:15:07;26.09;51.18
71098;SHT35;58754;47.622;-2.986;2023-06-26T12:17:37;26.09;51.12
71098;SHT35;58754;47.622;-2.986;2023-06-26T12:20:04;26.11;51.09
71098;SHT35;58754;47.622;-2.986;2023-06-26T12:22:34;26.13;50.98
71098;SHT35;58754;47.622;-2.986;2023-06-26T12:25:01;26.09;50.92
71098;SHT35;58754;47.622;-2.986;2023-06-26T12:27:27;26.11;50.92
71098;SHT35;58754;47.622;-2.986;2023-06-26T12:29:54;26.11;50.88
71098;SHT35;58754;47.622;-2.986;2023-06-26T12:32:22;26.13;50.83
71098;SHT35;58754;47.622;-2.986;2023-06-26T12:34:50;26.13;50.78
71098;SHT35;58754;47.622;-2.986;2023-06-26T12:37:16;26.14;50.74
71098;SHT35;58754;47.622;-2.986;2023-06-26T12:42:15;26.11;50.60
71098;SHT35;58754;47.622;-2.986;2023-06-26T12:44:41;26.13;50.59
71098;SHT35;58754;47.622;-2.986;2023-06-26T12:47:07;26.13;50.51
71098;SHT35;58754;47.622;-2.986;2023-06-26T12:49:35;26.15;50.45
71098;SHT35;58754;47.622;-2.986;2023-06-26T12:52:03;26.11;50.45
71098;SHT35;58754;47.622;-2.986;2023-06-26T12:54:30;26.15;50.32
71098;SHT35;58754;47.622;-2.986;2023-06-26T12:56:55;26.14;50.41
71098;SHT35;58754;47.622;-2.986;2023-06-26T12:59:22;26.11;50.28
71098;SHT35;58754;47.622;-2.986;2023-06-26T13:01:47;26.13;50.15
71098;SHT35;58754;47.622;-2.986;2023-06-26T13:04:14;26.13;50.27
71098;SHT35;58754;47.622;-2.986;2023-06-26T13:06:39;26.13;50.22
71098;SHT35;58754;47.622;-2.986;2023-06-26T13:09:05;26.14;50.11
71098;SHT35;58754;47.622;-2.986;2023-06-26T13:11:32;26.14;50.17
71098;SHT35;58754;47.622;-2.986;2023-06-26T13:14:01;26.14;50.13
71098;SHT35;58754;47.622;-2.986;2023-06-26T13:16:27;26.14;50.03
71098;SHT35;58754;47.622;-2.986;2023-06-26T13:18:52;26.13;50.08
71098;SHT35;58754;47.622;-2.986;2023-06-26T13:21:18;26.14;50.05
71098;SHT35;58754;47.622;-2.986;2023-06-26T13:23:44;26.14;49.97
71098;SHT35;58754;47.622;-2.986;2023-06-26T13:26:11;26.15;50.00
71098;SHT35;58754;47.622;-2.986;2023-06-26T13:28:37;26.14;50.00
71098;SHT35;58754;47.622;-2.986;2023-06-26T13:31:03;26.15;49.93
71098;SHT35;58754;47.622;-2.986;2023-06-26T13:33:30;26.13;49.95
71098;SHT35;58754;47.622;-2.986;2023-06-26T13:35:56;26.15;49.87
71098;SHT35;58754;47.622;-2.986;2023-06-26T13:38:22;26.15;49.97
71098;SHT35;58754;47.622;-2.986;2023-06-26T13:40:55;26.17;49.84
71098;SHT35;58754;47.622;-2.986;2023-06-26T13:43:23;26.15;49.91
71098;SHT35;58754;47.622;-2.986;2023-06-26T13:45:49;26.15;49.91
71098;SHT35;58754;47.622;-2.986;2023-06-26T13:48:15;26.18;49.84
71098;SHT35;58754;47.622;-2.986;2023-06-26T13:50:40;26.14;49.87
71098;SHT35;58754;47.622;-2.986;2023-06-26T13:53:06;26.17;49.77
71098;SHT35;58754;47.622;-2.986;2023-06-26T13:55:33;26.14;49.84
71098;SHT35;58754;47.622;-2.986;2023-06-26T13:57:59;26.15;49.83
71098;SHT35;58754;47.622;-2.986;2023-06-26T14:00:25;26.17;49.80
71098;SHT35;58754;47.622;-2.986;2023-06-26T14:02:51;26.17;49.84
71098;SHT35;58754;47.622;-2.986;2023-06-26T14:05:17;26.17;49.83
71098;SHT35;58754;47.622;-2.986;2023-06-26T14:07:44;26.18;49.72
71098;SHT35;58754;47.622;-2.986;2023-06-26T14:10:10;26.17;49.74
71098;SHT35;58754;47.622;-2.986;2023-06-26T14:12:36;26.17;49.77
71098;SHT35;58754;47.622;-2.986;2023-06-26T14:15:02;26.17;49.74
71098;SHT35;58754;47.622;-2.986;2023-06-26T14:17:28;26.20;49.67
71098;SHT35;58754;47.622;-2.986;2023-06-26T14:19:54;26.17;49.75
71098;SHT35;58754;47.622;-2.986;2023-06-26T14:22:20;26.17;49.73
71098;SHT35;58754;47.622;-2.986;2023-06-26T14:24:48;26.18;49.69
71098;SHT35;58754;47.622;-2.986;2023-06-26T14:27:14;26.18;49.67
71098;SHT35;58754;47.622;-2.986;2023-06-26T14:29:40;26.17;49.65
71098;SHT35;58754;47.622;-2.986;2023-06-26T14:32:06;26.17;49.64
71098;SHT35;58754;47.622;-2.986;2023-06-26T14:34:32;26.17;49.62
71098;SHT35;58754;47.622;-2.986;2023-06-26T14:36:58;26.18;49.57
71098;SHT35;58754;47.622;-2.986;2023-06-26T14:39:24;26.17;49.51
71098;SHT35;58754;47.622;-2.986;2023-06-26T14:41:50;26.17;49.55
71098;SHT35;58754;47.622;-2.986;2023-06-26T14:44:15;26.20;49.60
71098;SHT35;58754;47.622;-2.986;2023-06-26T14:46:41;26.18;49.51
71098;SHT35;58754;47.622;-2.986;2023-06-26T14:49:07;26.20;49.53
71098;SHT35;58754;47.622;-2.986;2023-06-26T14:51:33;26.21;49.52
71098;SHT35;58754;47.622;-2.986;2023-06-26T14:53:59;26.21;49.45
71098;SHT35;58754;47.622;-2.986;2023-06-26T14:56:25;26.21;49.49
71098;SHT35;58754;47.622;-2.986;2023-06-26T14:58:51;26.21;49.54
71098;SHT35;58754;47.622;-2.986;2023-06-26T15:01:18;26.22;49.45
71098;SHT35;58754;47.622;-2.986;2023-06-26T15:03:47;26.21;49.53
71098;SHT35;58754;47.622;-2.986;2023-06-26T15:06:13;26.21;49.52
71098;SHT35;58754;47.622;-2.986;2023-06-26T15:08:39;26.22;49.44
71098;SHT35;58754;47.622;-2.986;2023-06-26T15:11:05;26.20;49.51
71098;SHT35;58754;47.622;-2.986;2023-06-26T15:13:31;26.22;49.47
71098;SHT35;58754;47.622;-2.986;2023-06-26T15:15:57;26.21;49.45
71098;SHT35;58754;47.622;-2.986;2023-06-26T15:18:22;26.21;49.46
71098;SHT35;58754;47.622;-2.986;2023-06-26T15:20:48;26.24;49.48
71098;SHT35;58754;47.622;-2.986;2023-06-26T15:23:14;26.21;49.51
71098;SHT35;58754;47.622;-2.986;2023-06-26T15:25:40;26.22;49.44
71098;SHT35;58754;47.622;-2.986;2023-06-26T15:28:06;26.24;49.55